createdAt,value
2023-03-03T00:01:30.947Z,101697.59
2023-03-03T00:03:58.818Z,101699.47
2023-03-03T00:06:26.924Z,101709.31
2023-03-03T00:08:54.850Z,101708.47
2023-03-03T00:11:23.008Z,101713.06
2023-03-03T00:13:52.115Z,101707.63
2023-03-03T00:16:25.030Z,101570.13
2023-03-03T00:18:54.777Z,101707.63
2023-03-03T00:21:30.512Z,101707.84
2023-03-03T00:24:16.985Z,101713.25
2023-03-03T00:26:45.950Z,101710.56
2023-03-03T00:29:31.498Z,101722.25
2023-03-03T00:32:11.716Z,101710.72
2023-03-03T00:34:41.767Z,101711.56
2023-03-03T00:37:21.218Z,101717.84
2023-03-03T00:39:49.155Z,101719.72
2023-03-03T00:42:17.898Z,101720.75
2023-03-03T00:44:46.149Z,101718.41
2023-03-03T00:47:31.761Z,101727.00
2023-03-03T00:50:26.735Z,101719.91
2023-03-03T00:53:00.886Z,101731.41
2023-03-03T00:55:28.880Z,101731.59
2023-03-03T00:57:56.813Z,101737.88
2023-03-03T01:00:24.844Z,101737.88
2023-03-03T01:02:53.158Z,101740.59
2023-03-03T01:05:21.185Z,101736.38
2023-03-03T01:07:50.522Z,101736.19
2023-03-03T01:10:18.561Z,101740.75
2023-03-03T01:12:46.761Z,101740.75
2023-03-03T01:15:15.278Z,101748.91
2023-03-03T01:17:43.280Z,101750.59
2023-03-03T01:20:12.628Z,101753.50
2023-03-03T01:22:40.819Z,101754.34
2023-03-03T01:25:10.650Z,101753.31
2023-03-03T01:27:38.524Z,101749.75
2023-03-03T01:30:09.150Z,101743.31
2023-03-03T01:32:37.318Z,101739.75
2023-03-03T01:35:05.651Z,101738.91
2023-03-03T01:37:35.156Z,101747.44
2023-03-03T01:40:03.107Z,101751.63
2023-03-03T01:42:32.713Z,101753.50
2023-03-03T01:45:15.886Z,101751.63
2023-03-03T01:47:44.672Z,101751.63
2023-03-03T01:50:13.260Z,101752.47
2023-03-03T01:52:43.165Z,101751.63
2023-03-03T01:55:13.388Z,101748.91
2023-03-03T01:57:44.159Z,101753.72
2023-03-03T02:00:13.210Z,101749.94
2023-03-03T02:02:41.388Z,101758.91
2023-03-03T02:05:09.726Z,101758.06
2023-03-03T02:07:37.587Z,101749.75
2023-03-03T02:10:06.798Z,101751.63
2023-03-03T02:12:36.093Z,101756.22
2023-03-03T02:15:17.422Z,101740.31
2023-03-03T02:17:45.526Z,101750.78
2023-03-03T02:20:14.397Z,101751.00
2023-03-03T02:22:45.476Z,101751.00
2023-03-03T02:25:16.149Z,101745.56
2023-03-03T02:27:45.475Z,101748.06
2023-03-03T02:30:16.301Z,101751.00
2023-03-03T02:32:44.447Z,101754.53
2023-03-03T02:35:28.490Z,101756.41
2023-03-03T02:37:57.291Z,101758.28
2023-03-03T02:40:25.742Z,101726.66
2023-03-03T02:42:55.355Z,101763.50
2023-03-03T02:45:23.514Z,101762.47
2023-03-03T02:47:51.909Z,101767.06
2023-03-03T02:50:19.855Z,101760.63
2023-03-03T02:52:48.035Z,101757.91
2023-03-03T02:55:16.082Z,101753.50
2023-03-03T02:57:44.010Z,101767.06
2023-03-03T03:00:14.166Z,101751.63
2023-03-03T03:02:42.386Z,101754.34
2023-03-03T03:05:10.541Z,101755.19
2023-03-03T03:07:38.450Z,101754.34
2023-03-03T03:10:07.098Z,101756.22
2023-03-03T03:12:35.321Z,101750.78
2023-03-03T03:15:03.243Z,101761.63
2023-03-03T03:17:32.554Z,101760.78
2023-03-03T03:20:00.502Z,101766.03
2023-03-03T03:22:28.660Z,101771.66
2023-03-03T03:24:56.840Z,101774.19
2023-03-03T03:27:24.782Z,101770.00
2023-03-03T03:29:52.648Z,101773.34
2023-03-03T03:32:20.865Z,101783.34
2023-03-03T03:34:50.318Z,101782.50
2023-03-03T03:37:18.251Z,101781.69
2023-03-03T03:39:46.200Z,101776.25
2023-03-03T03:42:14.472Z,101772.72
2023-03-03T03:44:42.491Z,101774.38
2023-03-03T03:47:10.424Z,101774.38
2023-03-03T03:49:38.336Z,101773.34
2023-03-03T03:52:07.913Z,101771.66
2023-03-03T03:54:35.811Z,101779.78
2023-03-03T03:57:03.810Z,101775.41
2023-03-03T03:59:31.683Z,101773.34
2023-03-03T04:01:59.920Z,101769.78
2023-03-03T04:04:27.885Z,101767.91
2023-03-03T04:06:55.792Z,101766.03
2023-03-03T04:09:25.053Z,101775.19
2023-03-03T04:11:53.237Z,101776.06
2023-03-03T04:14:21.153Z,101780.63
2023-03-03T04:16:49.065Z,101779.78
2023-03-03T04:19:16.986Z,101778.13
2023-03-03T04:21:45.168Z,101771.66
2023-03-03T04:24:13.077Z,101773.53
2023-03-03T04:26:42.401Z,101774.38
2023-03-03T04:29:10.299Z,101779.78
2023-03-03T04:31:38.458Z,101788.78
2023-03-03T04:34:06.387Z,101795.06
2023-03-03T04:36:34.261Z,101797.75
2023-03-03T04:39:02.164Z,101799.63
2023-03-03T04:41:30.402Z,101787.94
2023-03-03T04:43:59.651Z,101781.47
2023-03-03T04:46:27.637Z,101787.75
2023-03-03T04:48:55.617Z,101793.38
2023-03-03T04:51:23.787Z,101793.38
2023-03-03T04:53:51.665Z,101797.75
2023-03-03T04:56:19.600Z,101788.78
2023-03-03T04:58:47.514Z,101800.31
2023-03-03T05:01:17.176Z,101803.19
2023-03-03T05:03:45.150Z,101804.03
2023-03-03T05:06:13.027Z,101806.75
2023-03-03T05:08:43.152Z,101806.75
2023-03-03T05:11:11.375Z,101800.47
2023-03-03T05:13:39.297Z,101804.88
2023-03-03T05:16:08.004Z,101806.75
2023-03-03T05:18:37.695Z,101813.03
2023-03-03T05:21:06.252Z,101809.47
2023-03-03T05:23:34.111Z,101814.91
2023-03-03T05:26:02.013Z,101811.34
2023-03-03T05:28:29.916Z,101815.75
2023-03-03T05:30:58.270Z,101817.59
2023-03-03T05:33:26.219Z,101823.03
2023-03-03T05:35:56.753Z,101828.47
2023-03-03T05:38:24.856Z,101824.91
2023-03-03T05:40:54.325Z,101824.91
2023-03-03T05:43:22.300Z,101823.88
2023-03-03T05:45:55.355Z,101820.50
2023-03-03T05:48:23.240Z,101824.91
2023-03-03T05:50:51.452Z,101814.06
2023-03-03T05:53:20.803Z,101828.28
2023-03-03T05:55:48.694Z,101831.84
2023-03-03T05:58:16.580Z,101833.72
2023-03-03T06:00:44.826Z,101829.50
2023-03-03T06:03:12.809Z,101831.00
2023-03-03T06:05:40.748Z,101828.28
2023-03-03T06:08:08.695Z,101830.16
2023-03-03T06:10:38.290Z,101838.31
2023-03-03T06:13:06.164Z,101832.03
2023-03-03T06:15:34.156Z,101830.34
2023-03-03T06:18:03.398Z,101833.72
2023-03-03T06:20:31.724Z,101836.59
2023-03-03T06:22:59.772Z,101846.44
2023-03-03T06:25:27.990Z,101852.91
2023-03-03T06:27:57.326Z,101858.16
2023-03-03T06:30:26.995Z,101854.59
2023-03-03T06:32:55.242Z,101870.88
2023-03-03T06:35:23.228Z,101871.91
2023-03-03T06:37:51.626Z,101868.34
2023-03-03T06:40:19.908Z,101867.31
2023-03-03T06:42:47.836Z,101876.31
2023-03-03T06:45:17.297Z,101874.44
2023-03-03T06:47:45.224Z,101875.47
2023-03-03T06:50:13.212Z,101890.06
2023-03-03T06:52:41.409Z,101890.91
2023-03-03T06:55:13.338Z,101887.34
2023-03-03T06:57:42.275Z,101897.19
2023-03-03T07:00:20.334Z,101905.16
2023-03-03T07:02:48.793Z,101899.72
2023-03-03T07:05:17.379Z,101899.72
2023-03-03T07:07:45.411Z,101889.88
2023-03-03T07:10:22.042Z,101905.31
2023-03-03T07:12:49.950Z,101898.88
2023-03-03T07:15:21.602Z,101898.19
2023-03-03T07:17:51.310Z,101900.91
2023-03-03T07:20:22.164Z,101913.47
2023-03-03T07:22:50.322Z,101913.47
2023-03-03T07:25:23.971Z,101916.19
2023-03-03T07:27:51.852Z,101918.88
2023-03-03T07:30:26.487Z,101922.28
2023-03-03T07:32:56.541Z,101923.94
2023-03-03T07:35:40.290Z,101926.84
2023-03-03T07:38:32.044Z,101927.88
2023-03-03T07:41:00.563Z,101929.94
2023-03-03T07:43:32.478Z,101923.66
2023-03-03T07:46:16.834Z,101928.06
2023-03-03T07:48:44.748Z,101925.34
2023-03-03T07:51:20.276Z,101937.22
2023-03-03T07:53:48.203Z,101929.94
2023-03-03T07:56:24.087Z,101924.50
2023-03-03T07:58:52.007Z,101935.34
2023-03-03T08:01:46.055Z,101938.91
2023-03-03T08:04:19.359Z,101944.16
2023-03-03T08:06:51.467Z,101941.63
2023-03-03T08:09:47.932Z,101941.63
2023-03-03T08:12:29.856Z,101844.16
2023-03-03T08:14:57.991Z,101951.47
2023-03-03T08:17:29.856Z,101922.97
2023-03-03T08:19:57.801Z,101962.31
2023-03-03T08:22:31.469Z,101972.16
2023-03-03T08:24:59.350Z,101968.78
2023-03-03T08:27:27.356Z,101970.47
2023-03-03T08:29:55.308Z,101969.44
2023-03-03T08:32:23.599Z,101975.91
2023-03-03T08:34:52.979Z,101976.75
2023-03-03T08:37:20.963Z,101979.28
2023-03-03T08:39:48.854Z,101978.59
2023-03-03T08:42:17.050Z,101976.75
2023-03-03T08:44:44.988Z,101980.31
2023-03-03T08:47:13.182Z,101980.31
2023-03-03T08:49:41.095Z,101983.03
2023-03-03T08:52:10.681Z,101988.44
2023-03-03T08:54:38.585Z,101992.00
2023-03-03T08:57:06.444Z,101984.72
2023-03-03T08:59:37.791Z,101991.34
2023-03-03T09:02:06.220Z,101989.28
2023-03-03T09:04:34.258Z,101989.47
2023-03-03T09:07:02.154Z,101994.72
2023-03-03T09:09:31.398Z,101988.63
2023-03-03T09:12:00.265Z,102004.72
2023-03-03T09:14:29.602Z,101997.63
2023-03-03T09:16:57.731Z,101995.75
2023-03-03T09:19:27.414Z,101998.47
2023-03-03T09:21:56.916Z,102001.16
2023-03-03T09:24:28.395Z,102005.59
2023-03-03T09:26:58.899Z,102007.44
2023-03-03T09:29:29.019Z,102012.03
2023-03-03T09:31:58.784Z,102009.31
2023-03-03T09:34:28.329Z,102008.47
2023-03-03T09:36:56.560Z,102013.91
2023-03-03T09:39:25.441Z,102015.59
2023-03-03T09:42:27.249Z,102021.88
2023-03-03T09:45:22.943Z,102024.75
2023-03-03T09:48:09.889Z,102029.34
2023-03-03T09:50:41.398Z,102029.34
2023-03-03T09:53:17.089Z,102035.63
2023-03-03T09:55:49.428Z,102033.75
2023-03-03T09:58:31.994Z,102038.31
2023-03-03T10:01:04.432Z,102038.16
2023-03-03T10:03:54.120Z,102033.75
2023-03-03T10:06:25.246Z,102035.44
2023-03-03T10:09:10.685Z,102039.19
2023-03-03T10:11:41.837Z,102039.19
2023-03-03T10:14:34.393Z,102040.19
2023-03-03T10:17:11.260Z,102042.75
2023-03-03T10:19:40.398Z,102040.88
2023-03-03T10:22:31.173Z,102042.75
2023-03-03T10:25:10.233Z,102042.75
2023-03-03T10:27:56.435Z,102045.44
2023-03-03T10:30:39.832Z,102043.59
2023-03-03T10:33:14.077Z,102042.75
2023-03-03T10:36:05.959Z,102045.44
2023-03-03T10:38:40.814Z,102045.28
2023-03-03T10:41:17.215Z,102037.13
2023-03-03T10:44:11.633Z,102034.41
2023-03-03T10:46:54.480Z,102031.72
2023-03-03T10:49:28.644Z,101979.72
2023-03-03T10:52:25.440Z,102038.50
2023-03-03T10:55:02.086Z,102049.00
2023-03-03T10:57:32.715Z,102051.53
2023-03-03T11:00:22.789Z,102042.91
2023-03-03T11:03:01.793Z,102057.81
2023-03-03T11:05:34.893Z,102057.81
2023-03-03T11:08:04.668Z,101966.97
2023-03-03T11:10:43.612Z,102063.22
2023-03-03T11:13:15.142Z,102057.81
2023-03-03T11:16:00.914Z,102038.41
2023-03-03T11:18:35.773Z,102065.09
2023-03-03T11:21:08.714Z,102051.53
2023-03-03T11:24:03.721Z,102050.50
2023-03-03T11:26:51.619Z,102053.22
2023-03-03T11:29:34.847Z,102052.75
2023-03-03T11:32:06.102Z,102055.09
2023-03-03T11:34:54.946Z,102051.34
2023-03-03T11:37:24.948Z,101962.63
2023-03-03T11:39:53.397Z,102037.94
2023-03-03T11:42:24.862Z,102038.16
2023-03-03T11:44:54.033Z,102031.50
2023-03-03T11:47:24.522Z,102039.66
2023-03-03T11:49:56.896Z,102029.63
2023-03-03T11:52:28.647Z,102028.78
2023-03-03T11:54:59.042Z,101987.06
2023-03-03T11:57:29.185Z,102021.66
2023-03-03T12:00:02.081Z,102017.94
2023-03-03T12:02:53.949Z,102017.75
2023-03-03T12:05:38.298Z,102018.94
2023-03-03T12:08:09.601Z,102000.03
2023-03-03T12:10:39.172Z,102007.06
2023-03-03T12:13:11.320Z,102014.38
2023-03-03T12:15:41.961Z,102014.19
2023-03-03T12:18:20.154Z,102012.50
2023-03-03T12:20:52.997Z,102002.38
2023-03-03T12:23:37.969Z,102007.28
2023-03-03T12:26:07.599Z,101970.97
2023-03-03T12:28:37.611Z,102005.19
2023-03-03T12:31:15.383Z,102002.66
2023-03-03T12:33:54.164Z,102000.63
2023-03-03T12:36:46.613Z,101997.91
2023-03-03T12:39:32.659Z,101994.34
2023-03-03T12:42:06.207Z,101995.19
2023-03-03T12:44:36.836Z,101994.34
2023-03-03T12:47:07.409Z,101966.50
2023-03-03T12:49:44.050Z,101988.91
2023-03-03T12:52:21.871Z,101981.31
2023-03-03T12:54:58.673Z,101991.44
2023-03-03T12:57:30.355Z,101991.63
2023-03-03T13:00:13.194Z,101961.44
2023-03-03T13:02:44.526Z,101993.16
2023-03-03T13:05:20.797Z,101883.63
2023-03-03T13:07:54.209Z,101993.50
2023-03-03T13:10:24.947Z,101988.75
2023-03-03T13:12:55.200Z,101990.59
2023-03-03T13:15:31.665Z,101984.88
2023-03-03T13:18:06.391Z,101991.44
2023-03-03T13:20:39.667Z,101994.16
2023-03-03T13:23:11.753Z,101986.38
2023-03-03T13:25:45.752Z,101988.06
2023-03-03T13:28:17.678Z,101973.34
2023-03-03T13:30:49.194Z,101991.44
2023-03-03T13:33:18.719Z,101985.19
2023-03-03T13:35:47.374Z,101976.84
2023-03-03T13:38:19.973Z,101978.56
2023-03-03T13:40:50.134Z,101978.56
2023-03-03T13:43:20.020Z,101974.69
2023-03-03T13:46:07.468Z,101976.00
2023-03-03T13:48:48.782Z,101975.00
2023-03-03T13:51:22.743Z,101976.00
2023-03-03T13:53:54.521Z,101978.56
2023-03-03T13:56:32.065Z,101973.13
2023-03-03T13:59:04.598Z,101968.88
2023-03-03T14:01:35.632Z,101968.50
2023-03-03T14:04:10.373Z,101973.94
2023-03-03T14:06:39.047Z,101973.13
2023-03-03T14:09:15.390Z,101975.84
2023-03-03T14:11:47.884Z,101973.13
2023-03-03T14:14:42.974Z,101961.41
2023-03-03T14:17:16.007Z,101942.34
2023-03-03T14:19:45.435Z,101967.69
2023-03-03T14:22:23.611Z,101964.97
2023-03-03T14:25:02.559Z,101960.56
2023-03-03T14:27:35.854Z,101961.41
2023-03-03T14:30:32.019Z,101952.59
2023-03-03T14:33:06.414Z,101957.00
2023-03-03T14:35:35.721Z,101949.50
2023-03-03T14:38:04.492Z,101954.94
2023-03-03T14:40:35.158Z,101950.34
2023-03-03T14:43:03.806Z,101940.53
2023-03-03T14:45:34.620Z,101942.41
2023-03-03T14:48:07.069Z,101933.59
2023-03-03T14:50:36.998Z,101932.41
2023-03-03T14:53:15.250Z,101943.25
2023-03-03T14:55:45.502Z,101932.41
2023-03-03T14:58:26.917Z,101928.84
2023-03-03T15:01:14.588Z,101934.25
2023-03-03T15:03:47.881Z,101929.84
2023-03-03T15:06:28.224Z,101930.72
2023-03-03T15:08:56.214Z,101927.78
2023-03-03T15:11:29.205Z,101929.69
2023-03-03T15:14:10.921Z,101929.69
2023-03-03T15:16:40.102Z,101926.13
2023-03-03T15:19:46.295Z,101920.69
2023-03-03T15:22:19.705Z,101921.53
2023-03-03T15:24:51.054Z,101909.84
2023-03-03T15:27:23.004Z,101904.19
2023-03-03T15:29:57.491Z,101909.63
2023-03-03T15:32:27.992Z,101915.91
2023-03-03T15:35:00.234Z,101912.16
2023-03-03T15:37:39.441Z,101911.31
2023-03-03T15:40:15.248Z,101914.88
2023-03-03T15:42:49.040Z,101909.44
2023-03-03T15:45:21.342Z,101912.16
2023-03-03T15:48:07.893Z,101911.31
2023-03-03T15:50:45.436Z,101902.72
2023-03-03T15:53:20.671Z,101898.75
2023-03-03T15:55:58.065Z,101899.63
2023-03-03T15:59:04.770Z,101902.31
2023-03-03T16:01:33.774Z,101897.09
2023-03-03T16:04:02.488Z,101896.06
2023-03-03T16:06:37.275Z,101905.03
2023-03-03T16:09:09.213Z,101893.72
2023-03-03T16:11:40.481Z,101885.13
2023-03-03T16:14:26.248Z,101907.59
2023-03-03T16:16:55.638Z,101896.44
2023-03-03T16:19:30.653Z,101876.69
2023-03-03T16:22:28.893Z,101904.88
2023-03-03T16:25:04.100Z,101904.88
2023-03-03T16:27:35.125Z,101798.63
2023-03-03T16:30:12.032Z,101908.59
2023-03-03T16:32:41.916Z,101913.00
2023-03-03T16:35:20.423Z,101895.59
2023-03-03T16:37:55.444Z,101908.59
2023-03-03T16:40:24.980Z,101913.84
2023-03-03T16:42:57.010Z,101910.84
2023-03-03T16:45:27.917Z,101911.16
2023-03-03T16:48:15.689Z,101916.56
2023-03-03T16:50:47.555Z,101922.84
2023-03-03T16:53:25.754Z,101921.81
2023-03-03T16:55:58.898Z,101775.88
2023-03-03T16:58:32.161Z,101927.44
2023-03-03T17:01:05.311Z,101917.31
2023-03-03T17:03:40.145Z,101928.06
2023-03-03T17:06:13.150Z,101933.50
2023-03-03T17:09:31.573Z,101933.50
2023-03-03T17:12:07.424Z,101938.56
2023-03-03T17:14:42.290Z,101934.47
2023-03-03T17:17:14.501Z,101941.75
2023-03-03T17:19:50.027Z,101947.00
2023-03-03T17:22:20.957Z,101868.59
2023-03-03T17:24:53.603Z,101938.75
2023-03-03T17:27:24.888Z,101951.78
2023-03-03T17:29:57.864Z,101874.03
2023-03-03T17:32:34.377Z,101949.25
2023-03-03T17:35:15.407Z,101953.00
2023-03-03T17:37:46.193Z,101797.56
2023-03-03T17:40:18.999Z,101958.59
2023-03-03T17:42:49.460Z,101962.34
2023-03-03T17:45:18.267Z,101955.22
2023-03-03T17:47:59.615Z,101967.78
2023-03-03T17:50:46.582Z,101969.66
2023-03-03T17:53:35.439Z,101964.78
2023-03-03T17:56:07.586Z,101973.41
2023-03-03T17:58:49.231Z,101978.47
2023-03-03T18:01:21.976Z,101972.84
2023-03-03T18:04:12.092Z,101829.91
2023-03-03T18:07:04.485Z,101977.56
2023-03-03T18:09:40.646Z,101985.97
2023-03-03T18:12:13.665Z,101978.66
2023-03-03T18:15:02.525Z,101978.47
2023-03-03T18:17:36.399Z,101984.56
2023-03-03T18:20:36.983Z,101980.16
2023-03-03T18:23:27.586Z,101983.72
2023-03-03T18:25:57.953Z,101917.28
2023-03-03T18:28:46.907Z,101980.34
2023-03-03T18:31:23.477Z,101981.38
2023-03-03T18:34:09.598Z,101983.06
2023-03-03T18:36:41.027Z,101983.91
2023-03-03T18:39:15.135Z,101984.75
2023-03-03T18:42:09.446Z,101984.94
2023-03-03T18:44:37.661Z,101988.50
2023-03-03T18:47:06.647Z,101990.34
2023-03-03T18:49:58.027Z,101994.59
2023-03-03T18:52:28.973Z,102003.59
2023-03-03T18:55:26.606Z,102000.66
2023-03-03T18:58:29.001Z,102005.09
2023-03-03T19:00:59.895Z,101999.69
2023-03-03T19:03:34.261Z,102003.25
2023-03-03T19:06:02.711Z,102001.38
2023-03-03T19:08:45.305Z,102003.06
2023-03-03T19:11:33.549Z,101996.59
2023-03-03T19:14:19.420Z,102002.03
2023-03-03T19:16:47.695Z,102005.59
2023-03-03T19:19:16.678Z,102005.59
2023-03-03T19:21:48.214Z,101931.50
2023-03-03T19:24:33.682Z,102002.88
2023-03-03T19:27:29.662Z,102010.38
2023-03-03T19:30:31.334Z,102002.06
2023-03-03T19:33:08.247Z,102016.81
2023-03-03T19:35:39.174Z,102013.59
2023-03-03T19:38:14.623Z,102013.59
2023-03-03T19:40:47.609Z,102024.28
2023-03-03T19:43:20.934Z,102001.44
2023-03-03T19:45:59.049Z,101956.72
2023-03-03T19:48:31.021Z,102011.53
2023-03-03T19:51:01.645Z,102004.78
2023-03-03T19:53:33.200Z,102010.72
2023-03-03T19:56:11.296Z,102008.00
2023-03-03T19:58:43.534Z,102003.38
2023-03-03T20:01:17.678Z,102016.16
2023-03-03T20:04:11.239Z,102012.59
2023-03-03T20:06:45.139Z,102007.50
2023-03-03T20:09:21.042Z,102007.31
2023-03-03T20:12:01.370Z,102010.88
2023-03-03T20:14:46.219Z,101927.34
2023-03-03T20:17:33.223Z,102009.88
2023-03-03T20:20:04.091Z,102009.88
2023-03-03T20:22:36.696Z,102014.47
2023-03-03T20:25:10.430Z,102009.38
2023-03-03T20:27:45.996Z,102011.75
2023-03-03T20:30:18.969Z,102018.19
2023-03-03T20:32:53.954Z,102015.47
2023-03-03T20:35:28.228Z,102016.50
2023-03-03T20:38:00.144Z,102021.09
2023-03-03T20:40:31.648Z,102021.94
2023-03-03T20:43:06.442Z,102016.38
2023-03-03T20:45:42.839Z,101950.41
2023-03-03T20:48:18.392Z,102029.22
2023-03-03T20:50:52.134Z,102023.81
2023-03-03T20:53:24.296Z,102025.66
2023-03-03T20:55:58.764Z,102023.81
2023-03-03T20:58:29.908Z,102030.06
2023-03-03T21:01:04.186Z,102033.81
2023-03-03T21:03:34.186Z,101986.75
2023-03-03T21:06:03.966Z,102043.84
2023-03-03T21:08:42.472Z,102032.97
2023-03-03T21:11:10.761Z,102019.09
2023-03-03T21:13:41.241Z,102034.66
2023-03-03T21:16:12.751Z,102035.50
2023-03-03T21:18:40.718Z,102031.94
2023-03-03T21:21:09.539Z,102028.38
2023-03-03T21:23:37.531Z,102028.38
2023-03-03T21:26:05.701Z,102019.38
2023-03-03T21:28:34.217Z,102020.44
2023-03-03T21:31:11.782Z,102020.44
2023-03-03T21:33:41.446Z,102033.81
2023-03-03T21:36:09.648Z,102027.75
2023-03-03T21:38:39.033Z,102027.91
2023-03-03T21:41:07.448Z,102026.91
2023-03-03T21:43:35.562Z,102027.75
2023-03-03T21:46:03.591Z,102030.47
2023-03-03T21:48:33.177Z,102039.44
2023-03-03T21:51:01.371Z,102032.16
2023-03-03T21:53:30.614Z,102021.47
2023-03-03T21:55:58.558Z,102026.06
2023-03-03T21:58:26.630Z,102026.22
2023-03-03T22:00:55.269Z,102032.50
2023-03-03T22:03:23.959Z,102022.47
2023-03-03T22:05:53.658Z,102016.22
2023-03-03T22:08:23.711Z,102023.34
2023-03-03T22:10:55.971Z,102019.78
2023-03-03T22:13:27.335Z,102014.34
2023-03-03T22:15:55.405Z,102019.78
2023-03-03T22:18:23.431Z,102018.91
2023-03-03T22:20:53.065Z,102005.72
2023-03-03T22:23:20.976Z,102008.06
2023-03-03T22:25:49.017Z,102010.94
2023-03-03T22:28:16.989Z,102013.66
2023-03-03T22:30:45.492Z,102013.66
2023-03-03T22:33:13.415Z,102011.78
2023-03-03T22:35:41.368Z,102011.78
2023-03-03T22:38:10.909Z,102010.13
2023-03-03T22:40:39.209Z,102013.66
2023-03-03T22:43:07.460Z,102015.56
2023-03-03T22:45:35.529Z,102015.75
2023-03-03T22:48:03.461Z,102005.72
2023-03-03T22:50:31.405Z,102013.03
2023-03-03T22:52:59.357Z,102017.63
2023-03-03T22:55:29.328Z,102015.91
2023-03-03T22:57:57.296Z,102022.38
2023-03-03T23:00:25.257Z,102020.50
2023-03-03T23:02:53.266Z,102021.53
2023-03-03T23:05:21.240Z,102022.38
2023-03-03T23:07:49.215Z,102020.69
2023-03-03T23:10:17.180Z,102029.88
2023-03-03T23:12:46.591Z,102025.47
2023-03-03T23:15:14.517Z,102024.63
2023-03-03T23:17:42.638Z,102029.03
2023-03-03T23:20:11.641Z,102028.19
2023-03-03T23:22:39.558Z,102029.03
2023-03-03T23:25:08.885Z,102026.47
2023-03-03T23:27:36.881Z,102025.63
2023-03-03T23:30:08.447Z,102022.06
2023-03-03T23:32:36.417Z,102025.63
2023-03-03T23:35:04.443Z,102023.94
2023-03-03T23:37:32.399Z,102027.50
2023-03-03T23:40:00.376Z,102017.66
2023-03-03T23:42:30.637Z,102018.50
2023-03-03T23:44:58.635Z,102011.41
2023-03-03T23:47:28.041Z,102014.13
2023-03-03T23:49:56.015Z,102014.13
2023-03-03T23:52:24.257Z,102014.94
2023-03-03T23:54:53.132Z,102019.75
2023-03-03T23:57:21.139Z,102021.44
2023-03-03T23:59:49.169Z,102017.88
